sensor_id;sensor_type;location;lat;lon;timestamp;temperature;humidity
64715;DHT22;51144;53.002;6.506;2022-10-15T00:00:30;12.20;99.90
64715;DHT22;51144;53.002;6.506;2022-10-15T00:02:55;12.20;99.90
64715;DHT22;51144;53.002;6.506;2022-10-15T00:05:21;12.20;99.90
64715;DHT22;51144;53.002;6.506;2022-10-15T00:07:47;12.20;99.90
64715;DHT22;51144;53.002;6.506;2022-10-15T00:10:13;12.20;99.90
64715;DHT22;51144;53.002;6.506;2022-10-15T00:12:40;12.20;99.90
64715;DHT22;51144;53.002;6.506;2022-10-15T00:15:06;12.20;99.90
64715;DHT22;51144;53.002;6.506;2022-10-15T00:17:33;12.20;99.90
64715;DHT22;51144;53.002;6.506;2022-10-15T00:19:59;12.20;99.90
64715;DHT22;51144;53.002;6.506;2022-10-15T00:22:25;12.20;99.90
64715;DHT22;51144;53.002;6.506;2022-10-15T00:24:51;12.20;99.90
64715;DHT22;51144;53.002;6.506;2022-10-15T00:27:16;12.10;99.90
64715;DHT22;51144;53.002;6.506;2022-10-15T00:29:42;12.20;99.90
64715;DHT22;51144;53.002;6.506;2022-10-15T00:32:08;12.10;99.90
64715;DHT22;51144;53.002;6.506;2022-10-15T00:34:34;12.10;99.90
64715;DHT22;51144;53.002;6.506;2022-10-15T00:36:59;12.10;99.90
64715;DHT22;51144;53.002;6.506;2022-10-15T00:39:25;12.10;99.90
64715;DHT22;51144;53.002;6.506;2022-10-15T00:41:51;12.10;99.90
64715;DHT22;51144;53.002;6.506;2022-10-15T00:47:08;12.10;99.90
64715;DHT22;51144;53.002;6.506;2022-10-15T00:49:44;12.10;99.90
64715;DHT22;51144;53.002;6.506;2022-10-15T00:52:18;12.10;99.90
64715;DHT22;51144;53.002;6.506;2022-10-15T00:54:54;12.10;99.90
64715;DHT22;51144;53.002;6.506;2022-10-15T00:57:23;12.10;99.90
64715;DHT22;51144;53.002;6.506;2022-10-15T00:59:51;12.10;99.90
64715;DHT22;51144;53.002;6.506;2022-10-15T01:02:19;12.10;99.90
64715;DHT22;51144;53.002;6.506;2022-10-15T01:04:45;12.10;99.90
64715;DHT22;51144;53.002;6.506;2022-10-15T01:07:12;12.00;99.90
64715;DHT22;51144;53.002;6.506;2022-10-15T01:09:38;12.00;99.90
64715;DHT22;51144;53.002;6.506;2022-10-15T01:12:14;12.10;99.90
64715;DHT22;51144;53.002;6.506;2022-10-15T01:15:11;12.10;99.90
64715;DHT22;51144;53.002;6.506;2022-10-15T01:29:08;12.10;99.90
64715;DHT22;51144;53.002;6.506;2022-10-15T01:34:46;12.00;99.90
64715;DHT22;51144;53.002;6.506;2022-10-15T01:37:26;12.10;99.90
64715;DHT22;51144;53.002;6.506;2022-10-15T01:40:01;12.10;99.90
64715;DHT22;51144;53.002;6.506;2022-10-15T01:42:53;12.10;99.90
64715;DHT22;51144;53.002;6.506;2022-10-15T01:45:21;12.10;99.90
64715;DHT22;51144;53.002;6.506;2022-10-15T01:47:57;12.10;99.90
64715;DHT22;51144;53.002;6.506;2022-10-15T01:50:25;12.10;99.90
64715;DHT22;51144;53.002;6.506;2022-10-15T01:52:54;12.10;99.90
64715;DHT22;51144;53.002;6.506;2022-10-15T01:55:21;12.10;99.90
64715;DHT22;51144;53.002;6.506;2022-10-15T01:57:49;12.10;99.90
64715;DHT22;51144;53.002;6.506;2022-10-15T02:00:15;12.10;99.90
64715;DHT22;51144;53.002;6.506;2022-10-15T02:02:41;12.10;99.90
64715;DHT22;51144;53.002;6.506;2022-10-15T02:05:12;12.10;99.90
64715;DHT22;51144;53.002;6.506;2022-10-15T02:10:19;12.10;99.90
64715;DHT22;51144;53.002;6.506;2022-10-15T02:21:38;12.10;99.90
64715;DHT22;51144;53.002;6.506;2022-10-15T02:24:21;12.10;99.90
64715;DHT22;51144;53.002;6.506;2022-10-15T02:26:50;12.10;99.90
64715;DHT22;51144;53.002;6.506;2022-10-15T02:29:19;12.10;99.90
64715;DHT22;51144;53.002;6.506;2022-10-15T02:31:46;12.10;99.90
64715;DHT22;51144;53.002;6.506;2022-10-15T02:34:16;12.10;99.90
64715;DHT22;51144;53.002;6.506;2022-10-15T02:36:43;12.10;99.90
64715;DHT22;51144;53.002;6.506;2022-10-15T02:39:15;12.10;99.90
64715;DHT22;51144;53.002;6.506;2022-10-15T02:41:42;12.10;99.90
64715;DHT22;51144;53.002;6.506;2022-10-15T02:44:08;12.10;99.90
64715;DHT22;51144;53.002;6.506;2022-10-15T02:46:33;12.00;99.90
64715;DHT22;51144;53.002;6.506;2022-10-15T02:48:59;12.00;99.90
64715;DHT22;51144;53.002;6.506;2022-10-15T02:51:25;12.10;99.90
64715;DHT22;51144;53.002;6.506;2022-10-15T02:53:50;12.00;99.90
64715;DHT22;51144;53.002;6.506;2022-10-15T02:56:16;12.00;99.90
64715;DHT22;51144;53.002;6.506;2022-10-15T02:58:41;12.00;99.90
64715;DHT22;51144;53.002;6.506;2022-10-15T03:01:07;12.00;99.90
64715;DHT22;51144;53.002;6.506;2022-10-15T03:03:33;12.00;99.90
64715;DHT22;51144;53.002;6.506;2022-10-15T03:05:58;12.00;99.90
64715;DHT22;51144;53.002;6.506;2022-10-15T03:08:24;12.00;99.90
64715;DHT22;51144;53.002;6.506;2022-10-15T03:10:49;12.00;99.90
64715;DHT22;51144;53.002;6.506;2022-10-15T03:13:15;12.00;99.90
64715;DHT22;51144;53.002;6.506;2022-10-15T03:15:41;12.00;99.90
64715;DHT22;51144;53.002;6.506;2022-10-15T03:18:07;12.00;99.90
64715;DHT22;51144;53.002;6.506;2022-10-15T03:20:32;12.00;99.90
64715;DHT22;51144;53.002;6.506;2022-10-15T03:22:58;12.00;99.90
64715;DHT22;51144;53.002;6.506;2022-10-15T03:25:24;12.00;99.90
64715;DHT22;51144;53.002;6.506;2022-10-15T03:27:49;11.90;99.90
64715;DHT22;51144;53.002;6.506;2022-10-15T03:30:17;12.00;99.90
64715;DHT22;51144;53.002;6.506;2022-10-15T03:32:43;11.90;99.90
64715;DHT22;51144;53.002;6.506;2022-10-15T03:35:08;11.90;99.90
64715;DHT22;51144;53.002;6.506;2022-10-15T03:37:34;11.90;99.90
64715;DHT22;51144;53.002;6.506;2022-10-15T03:40:00;11.90;99.90
64715;DHT22;51144;53.002;6.506;2022-10-15T03:42:25;11.90;99.90
64715;DHT22;51144;53.002;6.506;2022-10-15T03:44:51;11.90;99.90
64715;DHT22;51144;53.002;6.506;2022-10-15T03:47:16;11.90;99.90
64715;DHT22;51144;53.002;6.506;2022-10-15T03:49:42;11.90;99.90
64715;DHT22;51144;53.002;6.506;2022-10-15T03:52:08;11.90;99.90
64715;DHT22;51144;53.002;6.506;2022-10-15T03:54:33;11.90;99.90
64715;DHT22;51144;53.002;6.506;2022-10-15T03:56:59;11.90;99.90
64715;DHT22;51144;53.002;6.506;2022-10-15T03:59:25;11.80;99.90
64715;DHT22;51144;53.002;6.506;2022-10-15T04:01:50;11.80;99.90
64715;DHT22;51144;53.002;6.506;2022-10-15T04:04:16;11.80;99.90
64715;DHT22;51144;53.002;6.506;2022-10-15T04:06:41;11.80;99.90
64715;DHT22;51144;53.002;6.506;2022-10-15T04:09:10;11.80;99.90
64715;DHT22;51144;53.002;6.506;2022-10-15T04:11:35;11.80;99.90
64715;DHT22;51144;53.002;6.506;2022-10-15T04:14:01;11.80;99.90
64715;DHT22;51144;53.002;6.506;2022-10-15T04:16:27;11.80;99.90
64715;DHT22;51144;53.002;6.506;2022-10-15T04:18:52;11.80;99.90
64715;DHT22;51144;53.002;6.506;2022-10-15T04:21:18;11.80;99.90
64715;DHT22;51144;53.002;6.506;2022-10-15T04:23:43;11.80;99.90
64715;DHT22;51144;53.002;6.506;2022-10-15T04:26:09;11.80;99.90
64715;DHT22;51144;53.002;6.506;2022-10-15T04:28:35;11.80;99.90
64715;DHT22;51144;53.002;6.506;2022-10-15T04:31:01;11.80;99.90
64715;DHT22;51144;53.002;6.506;2022-10-15T04:33:27;11.80;99.90
64715;DHT22;51144;53.002;6.506;2022-10-15T04:36:04;11.80;99.90
64715;DHT22;51144;53.002;6.506;2022-10-15T04:38:30;11.70;99.90
64715;DHT22;51144;53.002;6.506;2022-10-15T04:41:00;11.70;99.90
64715;DHT22;51144;53.002;6.506;2022-10-15T04:43:27;11.70;99.90
64715;DHT22;51144;53.002;6.506;2022-10-15T04:46:00;11.70;99.90
64715;DHT22;51144;53.002;6.506;2022-10-15T04:48:31;11.70;99.90
64715;DHT22;51144;53.002;6.506;2022-10-15T04:51:04;11.70;99.90
64715;DHT22;51144;53.002;6.506;2022-10-15T04:53:31;11.70;99.90
64715;DHT22;51144;53.002;6.506;2022-10-15T04:56:01;11.70;99.90
64715;DHT22;51144;53.002;6.506;2022-10-15T04:58:29;11.70;99.90
64715;DHT22;51144;53.002;6.506;2022-10-15T05:00:58;11.70;99.90
64715;DHT22;51144;53.002;6.506;2022-10-15T05:03:25;11.70;99.90
64715;DHT22;51144;53.002;6.506;2022-10-15T05:05:50;11.70;99.90
64715;DHT22;51144;53.002;6.506;2022-10-15T05:08:16;11.70;99.90
64715;DHT22;51144;53.002;6.506;2022-10-15T05:10:41;11.70;99.90
64715;DHT22;51144;53.002;6.506;2022-10-15T05:13:07;11.70;99.90
64715;DHT22;51144;53.002;6.506;2022-10-15T05:15:32;11.70;99.90
64715;DHT22;51144;53.002;6.506;2022-10-15T05:17:58;11.70;99.90
64715;DHT22;51144;53.002;6.506;2022-10-15T05:20:24;11.70;99.90
64715;DHT22;51144;53.002;6.506;2022-10-15T05:22:49;11.70;99.90
64715;DHT22;51144;53.002;6.506;2022-10-15T05:25:15;11.70;99.90
64715;DHT22;51144;53.002;6.506;2022-10-15T05:27:40;11.70;99.90
64715;DHT22;51144;53.002;6.506;2022-10-15T05:30:06;11.70;99.90
64715;DHT22;51144;53.002;6.506;2022-10-15T05:32:32;11.70;99.90
64715;DHT22;51144;53.002;6.506;2022-10-15T05:34:58;11.70;99.90
64715;DHT22;51144;53.002;6.506;2022-10-15T05:37:23;11.70;99.90
64715;DHT22;51144;53.002;6.506;2022-10-15T05:39:49;11.70;99.90
64715;DHT22;51144;53.002;6.506;2022-10-15T05:42:14;11.70;99.90
64715;DHT22;51144;53.002;6.506;2022-10-15T05:44:40;11.70;99.90
64715;DHT22;51144;53.002;6.506;2022-10-15T05:47:06;11.70;99.90
64715;DHT22;51144;53.002;6.506;2022-10-15T05:49:36;11.70;99.90
64715;DHT22;51144;53.002;6.506;2022-10-15T05:52:02;11.70;99.90
64715;DHT22;51144;53.002;6.506;2022-10-15T05:54:27;11.70;99.90
64715;DHT22;51144;53.002;6.506;2022-10-15T05:56:53;11.70;99.90
64715;DHT22;51144;53.002;6.506;2022-10-15T05:59:19;11.70;99.90
64715;DHT22;51144;53.002;6.506;2022-10-15T06:01:44;11.60;99.90
64715;DHT22;51144;53.002;6.506;2022-10-15T06:04:10;11.70;99.90
64715;DHT22;51144;53.002;6.506;2022-10-15T06:06:36;11.70;99.90
64715;DHT22;51144;53.002;6.506;2022-10-15T06:09:02;11.70;99.90
64715;DHT22;51144;53.002;6.506;2022-10-15T06:11:27;11.70;99.90
64715;DHT22;51144;53.002;6.506;2022-10-15T06:13:53;11.70;99.90
64715;DHT22;51144;53.002;6.506;2022-10-15T06:16:19;11.70;99.90
64715;DHT22;51144;53.002;6.506;2022-10-15T06:18:44;11.70;99.90
64715;DHT22;51144;53.002;6.506;2022-10-15T06:21:11;11.70;99.90
64715;DHT22;51144;53.002;6.506;2022-10-15T06:23:37;11.70;99.90
64715;DHT22;51144;53.002;6.506;2022-10-15T06:26:04;11.80;99.90
64715;DHT22;51144;53.002;6.506;2022-10-15T06:28:30;11.70;99.90
64715;DHT22;51144;53.002;6.506;2022-10-15T06:30:58;11.70;99.90
64715;DHT22;51144;53.002;6.506;2022-10-15T06:33:24;11.70;99.90
64715;DHT22;51144;53.002;6.506;2022-10-15T06:35:50;11.80;99.90
64715;DHT22;51144;53.002;6.506;2022-10-15T06:38:16;11.80;99.90
64715;DHT22;51144;53.002;6.506;2022-10-15T06:40:41;11.80;99.90
64715;DHT22;51144;53.002;6.506;2022-10-15T06:43:08;11.80;99.90
64715;DHT22;51144;53.002;6.506;2022-10-15T06:45:39;11.80;99.90
64715;DHT22;51144;53.002;6.506;2022-10-15T06:48:06;11.80;99.90
64715;DHT22;51144;53.002;6.506;2022-10-15T06:50:33;11.90;99.90
64715;DHT22;51144;53.002;6.506;2022-10-15T06:52:59;11.90;99.90
64715;DHT22;51144;53.002;6.506;2022-10-15T06:55:25;11.90;99.90
64715;DHT22;51144;53.002;6.506;2022-10-15T06:57:50;11.90;99.90
64715;DHT22;51144;53.002;6.506;2022-10-15T07:00:16;11.90;99.90
64715;DHT22;51144;53.002;6.506;2022-10-15T07:02:42;12.00;99.90
64715;DHT22;51144;53.002;6.506;2022-10-15T07:05:08;12.00;99.90
64715;DHT22;51144;53.002;6.506;2022-10-15T07:07:34;12.00;99.90
64715;DHT22;51144;53.002;6.506;2022-10-15T07:09:59;12.10;99.90
64715;DHT22;51144;53.002;6.506;2022-10-15T07:12:25;12.10;99.90
64715;DHT22;51144;53.002;6.506;2022-10-15T07:14:50;12.20;99.90
64715;DHT22;51144;53.002;6.506;2022-10-15T07:17:16;12.20;99.90
64715;DHT22;51144;53.002;6.506;2022-10-15T07:19:42;12.30;99.90
64715;DHT22;51144;53.002;6.506;2022-10-15T07:22:09;12.30;99.90
64715;DHT22;51144;53.002;6.506;2022-10-15T07:24:34;12.40;99.90
64715;DHT22;51144;53.002;6.506;2022-10-15T07:27:00;12.40;99.90
64715;DHT22;51144;53.002;6.506;2022-10-15T07:29:26;12.40;99.90
64715;DHT22;51144;53.002;6.506;2022-10-15T07:31:52;12.50;99.90
64715;DHT22;51144;53.002;6.506;2022-10-15T07:34:17;12.50;99.90
64715;DHT22;51144;53.002;6.506;2022-10-15T07:36:43;12.60;99.90
64715;DHT22;51144;53.002;6.506;2022-10-15T07:39:09;12.80;99.90
64715;DHT22;51144;53.002;6.506;2022-10-15T07:41:35;13.00;99.90
64715;DHT22;51144;53.002;6.506;2022-10-15T07:44:01;13.20;99.90
64715;DHT22;51144;53.002;6.506;2022-10-15T07:46:26;13.30;99.90
64715;DHT22;51144;53.002;6.506;2022-10-15T07:48:52;13.50;99.90
64715;DHT22;51144;53.002;6.506;2022-10-15T07:51:18;13.80;99.90
64715;DHT22;51144;53.002;6.506;2022-10-15T07:53:44;14.00;99.90
64715;DHT22;51144;53.002;6.506;2022-10-15T07:56:14;14.10;99.90
64715;DHT22;51144;53.002;6.506;2022-10-15T07:58:40;14.40;99.90
64715;DHT22;51144;53.002;6.506;2022-10-15T08:01:08;14.50;99.90
64715;DHT22;51144;53.002;6.506;2022-10-15T08:03:34;14.70;99.90
64715;DHT22;51144;53.002;6.506;2022-10-15T08:06:02;14.90;99.90
64715;DHT22;51144;53.002;6.506;2022-10-15T08:08:28;14.90;99.90
64715;DHT22;51144;53.002;6.506;2022-10-15T08:10:54;14.70;99.90
64715;DHT22;51144;53.002;6.506;2022-10-15T08:13:20;14.50;99.90
64715;DHT22;51144;53.002;6.506;2022-10-15T08:15:46;14.40;99.90
64715;DHT22;51144;53.002;6.506;2022-10-15T08:18:12;14.20;99.90
64715;DHT22;51144;53.002;6.506;2022-10-15T08:20:38;14.20;99.90
64715;DHT22;51144;53.002;6.506;2022-10-15T08:23:05;14.20;99.90
64715;DHT22;51144;53.002;6.506;2022-10-15T08:25:31;14.20;99.90
64715;DHT22;51144;53.002;6.506;2022-10-15T08:27:57;14.30;99.90
64715;DHT22;51144;53.002;6.506;2022-10-15T08:30:23;14.30;99.90
64715;DHT22;51144;53.002;6.506;2022-10-15T08:32:49;14.10;99.90
64715;DHT22;51144;53.002;6.506;2022-10-15T08:35:15;14.00;99.90
64715;DHT22;51144;53.002;6.506;2022-10-15T08:37:40;13.90;99.90
64715;DHT22;51144;53.002;6.506;2022-10-15T08:40:08;13.90;99.90
64715;DHT22;51144;53.002;6.506;2022-10-15T08:42:40;13.80;99.90
64715;DHT22;51144;53.002;6.506;2022-10-15T08:45:13;13.80;99.90
64715;DHT22;51144;53.002;6.506;2022-10-15T08:53:03;13.60;99.90
64715;DHT22;51144;53.002;6.506;2022-10-15T08:55:33;13.60;99.90
64715;DHT22;51144;53.002;6.506;2022-10-15T09:00:51;13.50;99.90
64715;DHT22;51144;53.002;6.506;2022-10-15T09:13:58;13.40;99.90
64715;DHT22;51144;53.002;6.506;2022-10-15T09:16:32;13.30;99.90
64715;DHT22;51144;53.002;6.506;2022-10-15T09:19:01;13.30;99.90
64715;DHT22;51144;53.002;6.506;2022-10-15T09:21:29;13.40;99.90
64715;DHT22;51144;53.002;6.506;2022-10-15T09:24:05;13.30;99.90
64715;DHT22;51144;53.002;6.506;2022-10-15T09:29:53;13.30;99.90
64715;DHT22;51144;53.002;6.506;2022-10-15T09:38:04;13.40;99.90
64715;DHT22;51144;53.002;6.506;2022-10-15T09:41:07;13.40;99.90
64715;DHT22;51144;53.002;6.506;2022-10-15T09:43:43;13.30;99.90
64715;DHT22;51144;53.002;6.506;2022-10-15T09:46:10;13.30;99.90
64715;DHT22;51144;53.002;6.506;2022-10-15T09:48:43;13.40;99.90
64715;DHT22;51144;53.002;6.506;2022-10-15T09:51:32;13.30;99.90
64715;DHT22;51144;53.002;6.506;2022-10-15T09:54:19;13.30;99.90
64715;DHT22;51144;53.002;6.506;2022-10-15T09:56:55;13.40;99.90
64715;DHT22;51144;53.002;6.506;2022-10-15T09:59:22;13.40;99.90
64715;DHT22;51144;53.002;6.506;2022-10-15T10:02:19;13.40;99.90
64715;DHT22;51144;53.002;6.506;2022-10-15T10:04:44;13.40;99.90
64715;DHT22;51144;53.002;6.506;2022-10-15T10:09:58;13.50;99.90
64715;DHT22;51144;53.002;6.506;2022-10-15T10:12:31;13.50;99.90
64715;DHT22;51144;53.002;6.506;2022-10-15T10:15:03;13.50;99.90
64715;DHT22;51144;53.002;6.506;2022-10-15T10:17:30;13.50;99.90
64715;DHT22;51144;53.002;6.506;2022-10-15T10:25:27;13.70;99.90
64715;DHT22;51144;53.002;6.506;2022-10-15T10:33:15;13.80;99.90
64715;DHT22;51144;53.002;6.506;2022-10-15T10:35:47;13.90;99.90
64715;DHT22;51144;53.002;6.506;2022-10-15T10:38:42;13.90;99.90
64715;DHT22;51144;53.002;6.506;2022-10-15T10:41:09;13.90;99.90
64715;DHT22;51144;53.002;6.506;2022-10-15T10:43:37;14.00;99.90
64715;DHT22;51144;53.002;6.506;2022-10-15T10:48:56;14.10;99.90
64715;DHT22;51144;53.002;6.506;2022-10-15T10:51:26;14.20;99.90
64715;DHT22;51144;53.002;6.506;2022-10-15T10:54:04;14.40;99.90
64715;DHT22;51144;53.002;6.506;2022-10-15T10:56:42;14.90;99.90
64715;DHT22;51144;53.002;6.506;2022-10-15T10:59:18;15.20;99.90
64715;DHT22;51144;53.002;6.506;2022-10-15T11:01:46;15.20;99.90
64715;DHT22;51144;53.002;6.506;2022-10-15T11:04:13;15.20;99.90
64715;DHT22;51144;53.002;6.506;2022-10-15T11:06:49;15.20;99.90
64715;DHT22;51144;53.002;6.506;2022-10-15T11:09:23;15.00;99.90
64715;DHT22;51144;53.002;6.506;2022-10-15T11:18:21;14.80;99.90
64715;DHT22;51144;53.002;6.506;2022-10-15T11:29:17;14.80;99.90
64715;DHT22;51144;53.002;6.506;2022-10-15T11:37:27;15.10;99.90
64715;DHT22;51144;53.002;6.506;2022-10-15T11:40:05;15.10;99.90
64715;DHT22;51144;53.002;6.506;2022-10-15T11:48:27;15.10;99.90
64715;DHT22;51144;53.002;6.506;2022-10-15T11:53:44;15.10;99.90
64715;DHT22;51144;53.002;6.506;2022-10-15T11:56:30;15.10;99.90
64715;DHT22;51144;53.002;6.506;2022-10-15T12:01:51;15.20;99.90
64715;DHT22;51144;53.002;6.506;2022-10-15T12:04:31;15.30;99.90
64715;DHT22;51144;53.002;6.506;2022-10-15T12:07:00;15.30;99.90
64715;DHT22;51144;53.002;6.506;2022-10-15T12:09:48;15.30;99.90
64715;DHT22;51144;53.002;6.506;2022-10-15T12:15:38;15.40;99.90
64715;DHT22;51144;53.002;6.506;2022-10-15T12:20:43;15.40;99.90
64715;DHT22;51144;53.002;6.506;2022-10-15T12:23:38;15.40;99.90
64715;DHT22;51144;53.002;6.506;2022-10-15T12:28:55;15.30;99.90
64715;DHT22;51144;53.002;6.506;2022-10-15T12:31:22;15.30;99.90
64715;DHT22;51144;53.002;6.506;2022-10-15T12:33:55;15.20;99.90
64715;DHT22;51144;53.002;6.506;2022-10-15T12:36:26;15.20;99.90
64715;DHT22;51144;53.002;6.506;2022-10-15T12:38:59;15.30;99.90
64715;DHT22;51144;53.002;6.506;2022-10-15T12:44:27;15.40;99.90
64715;DHT22;51144;53.002;6.506;2022-10-15T12:46:53;15.30;99.90
64715;DHT22;51144;53.002;6.506;2022-10-15T12:55:25;15.30;99.90
64715;DHT22;51144;53.002;6.506;2022-10-15T12:57:52;15.20;99.90
64715;DHT22;51144;53.002;6.506;2022-10-15T13:00:38;15.20;99.90
64715;DHT22;51144;53.002;6.506;2022-10-15T13:03:33;15.20;99.90
64715;DHT22;51144;53.002;6.506;2022-10-15T13:08:54;15.10;99.90
64715;DHT22;51144;53.002;6.506;2022-10-15T13:11:32;15.10;99.90
64715;DHT22;51144;53.002;6.506;2022-10-15T13:14:42;15.10;99.90
64715;DHT22;51144;53.002;6.506;2022-10-15T13:17:15;15.00;99.90
64715;DHT22;51144;53.002;6.506;2022-10-15T13:20:04;15.00;99.90
64715;DHT22;51144;53.002;6.506;2022-10-15T13:22:33;15.00;99.90
64715;DHT22;51144;53.002;6.506;2022-10-15T13:25:00;14.90;99.90
64715;DHT22;51144;53.002;6.506;2022-10-15T13:27:36;14.90;99.90
64715;DHT22;51144;53.002;6.506;2022-10-15T13:30:06;14.90;99.90
64715;DHT22;51144;53.002;6.506;2022-10-15T13:32:47;14.90;99.90
64715;DHT22;51144;53.002;6.506;2022-10-15T13:35:43;14.90;99.90
64715;DHT22;51144;53.002;6.506;2022-10-15T13:38:23;14.90;99.90
64715;DHT22;51144;53.002;6.506;2022-10-15T13:40:50;14.90;99.90
64715;DHT22;51144;53.002;6.506;2022-10-15T13:43:24;14.90;99.90
64715;DHT22;51144;53.002;6.506;2022-10-15T13:45:56;14.90;99.90
64715;DHT22;51144;53.002;6.506;2022-10-15T13:48:25;14.90;99.90
64715;DHT22;51144;53.002;6.506;2022-10-15T13:50:56;14.90;99.90
64715;DHT22;51144;53.002;6.506;2022-10-15T13:53:36;14.90;99.90
64715;DHT22;51144;53.002;6.506;2022-10-15T13:56:25;14.90;99.90
64715;DHT22;51144;53.002;6.506;2022-10-15T13:58:51;14.90;99.90
64715;DHT22;51144;53.002;6.506;2022-10-15T14:01:24;14.90;99.90
64715;DHT22;51144;53.002;6.506;2022-10-15T14:06:22;14.90;99.90
64715;DHT22;51144;53.002;6.506;2022-10-15T14:08:49;14.90;99.90
64715;DHT22;51144;53.002;6.506;2022-10-15T14:11:16;15.00;99.90
64715;DHT22;51144;53.002;6.506;2022-10-15T14:13:54;15.00;99.90
64715;DHT22;51144;53.002;6.506;2022-10-15T14:16:23;15.00;99.90
64715;DHT22;51144;53.002;6.506;2022-10-15T14:18:54;15.00;99.90
64715;DHT22;51144;53.002;6.506;2022-10-15T14:21:23;15.00;99.90
64715;DHT22;51144;53.002;6.506;2022-10-15T14:24:05;15.00;99.90
64715;DHT22;51144;53.002;6.506;2022-10-15T14:26:32;15.00;99.90
64715;DHT22;51144;53.002;6.506;2022-10-15T14:28:58;15.00;99.90
64715;DHT22;51144;53.002;6.506;2022-10-15T14:31:36;15.10;99.90
64715;DHT22;51144;53.002;6.506;2022-10-15T14:34:03;15.10;99.90
64715;DHT22;51144;53.002;6.506;2022-10-15T14:36:30;15.10;99.90
64715;DHT22;51144;53.002;6.506;2022-10-15T14:39:24;15.10;99.90
64715;DHT22;51144;53.002;6.506;2022-10-15T14:42:05;15.10;99.90
64715;DHT22;51144;53.002;6.506;2022-10-15T14:44:46;15.10;99.90
64715;DHT22;51144;53.002;6.506;2022-10-15T14:47:26;15.10;99.90
64715;DHT22;51144;53.002;6.506;2022-10-15T14:49:56;15.20;99.90
64715;DHT22;51144;53.002;6.506;2022-10-15T14:52:24;15.20;99.90
64715;DHT22;51144;53.002;6.506;2022-10-15T14:55:12;15.20;99.90
64715;DHT22;51144;53.002;6.506;2022-10-15T14:57:40;15.30;99.90
64715;DHT22;51144;53.002;6.506;2022-10-15T15:00:30;15.30;99.90
64715;DHT22;51144;53.002;6.506;2022-10-15T15:02:57;15.30;99.90
64715;DHT22;51144;53.002;6.506;2022-10-15T15:05:25;15.30;99.90
64715;DHT22;51144;53.002;6.506;2022-10-15T15:07:51;15.40;99.90
64715;DHT22;51144;53.002;6.506;2022-10-15T15:10:17;15.40;99.90
64715;DHT22;51144;53.002;6.506;2022-10-15T15:12:52;15.40;99.90
64715;DHT22;51144;53.002;6.506;2022-10-15T15:15:20;15.40;99.90
64715;DHT22;51144;53.002;6.506;2022-10-15T15:17:46;15.40;99.90
64715;DHT22;51144;53.002;6.506;2022-10-15T15:20:13;15.40;99.90
64715;DHT22;51144;53.002;6.506;2022-10-15T15:22:39;15.40;99.90
64715;DHT22;51144;53.002;6.506;2022-10-15T15:25:13;15.40;99.90
64715;DHT22;51144;53.002;6.506;2022-10-15T15:27:39;15.40;99.90
64715;DHT22;51144;53.002;6.506;2022-10-15T15:30:19;15.40;99.90
64715;DHT22;51144;53.002;6.506;2022-10-15T15:32:46;15.40;99.90
64715;DHT22;51144;53.002;6.506;2022-10-15T15:37:45;15.40;99.90
64715;DHT22;51144;53.002;6.506;2022-10-15T15:40:10;15.30;99.90
64715;DHT22;51144;53.002;6.506;2022-10-15T15:42:36;15.30;99.90
64715;DHT22;51144;53.002;6.506;2022-10-15T15:45:02;15.30;99.90
64715;DHT22;51144;53.002;6.506;2022-10-15T15:47:28;15.30;99.90
64715;DHT22;51144;53.002;6.506;2022-10-15T15:49:53;15.30;99.90
64715;DHT22;51144;53.002;6.506;2022-10-15T15:52:19;15.20;99.90
64715;DHT22;51144;53.002;6.506;2022-10-15T15:54:45;15.20;99.90
64715;DHT22;51144;53.002;6.506;2022-10-15T15:57:11;15.10;99.90
64715;DHT22;51144;53.002;6.506;2022-10-15T15:59:37;15.10;99.90
64715;DHT22;51144;53.002;6.506;2022-10-15T16:02:02;15.10;99.90
64715;DHT22;51144;53.002;6.506;2022-10-15T16:04:28;15.00;99.90
64715;DHT22;51144;53.002;6.506;2022-10-15T16:06:54;15.00;99.90
64715;DHT22;51144;53.002;6.506;2022-10-15T16:09:19;15.00;99.90
64715;DHT22;51144;53.002;6.506;2022-10-15T16:11:48;15.00;99.90
64715;DHT22;51144;53.002;6.506;2022-10-15T16:14:13;15.00;99.90
64715;DHT22;51144;53.002;6.506;2022-10-15T16:16:39;15.00;99.90
64715;DHT22;51144;53.002;6.506;2022-10-15T16:19:05;14.90;99.90
64715;DHT22;51144;53.002;6.506;2022-10-15T16:21:31;14.90;99.90
64715;DHT22;51144;53.002;6.506;2022-10-15T16:23:57;14.80;99.90
64715;DHT22;51144;53.002;6.506;2022-10-15T16:26:23;14.90;99.90
64715;DHT22;51144;53.002;6.506;2022-10-15T16:28:48;14.80;99.90
64715;DHT22;51144;53.002;6.506;2022-10-15T16:33:40;14.80;99.90
64715;DHT22;51144;53.002;6.506;2022-10-15T16:36:05;14.70;99.90
64715;DHT22;51144;53.002;6.506;2022-10-15T16:38:31;14.70;99.90
64715;DHT22;51144;53.002;6.506;2022-10-15T16:40:57;14.60;99.90
64715;DHT22;51144;53.002;6.506;2022-10-15T16:43:22;14.60;99.90
64715;DHT22;51144;53.002;6.506;2022-10-15T16:45:55;14.50;99.90
64715;DHT22;51144;53.002;6.506;2022-10-15T16:48:21;14.40;99.90
64715;DHT22;51144;53.002;6.506;2022-10-15T16:50:56;14.40;99.90
64715;DHT22;51144;53.002;6.506;2022-10-15T16:53:22;14.30;99.90
64715;DHT22;51144;53.002;6.506;2022-10-15T16:55:47;14.30;99.90
64715;DHT22;51144;53.002;6.506;2022-10-15T16:58:13;14.30;99.90
64715;DHT22;51144;53.002;6.506;2022-10-15T17:00:39;14.20;99.90
64715;DHT22;51144;53.002;6.506;2022-10-15T17:03:05;14.20;99.90
64715;DHT22;51144;53.002;6.506;2022-10-15T17:05:31;14.20;99.90
64715;DHT22;51144;53.002;6.506;2022-10-15T17:07:57;14.10;99.90
64715;DHT22;51144;53.002;6.506;2022-10-15T17:10:22;14.10;99.90
64715;DHT22;51144;53.002;6.506;2022-10-15T17:12:51;14.10;99.90
64715;DHT22;51144;53.002;6.506;2022-10-15T17:15:16;14.10;99.90
64715;DHT22;51144;53.002;6.506;2022-10-15T17:17:42;14.00;99.90
64715;DHT22;51144;53.002;6.506;2022-10-15T17:20:09;14.00;99.90
64715;DHT22;51144;53.002;6.506;2022-10-15T17:22:34;13.90;99.90
64715;DHT22;51144;53.002;6.506;2022-10-15T17:25:02;13.90;99.90
64715;DHT22;51144;53.002;6.506;2022-10-15T17:27:28;13.90;99.90
64715;DHT22;51144;53.002;6.506;2022-10-15T17:29:53;13.80;99.90
64715;DHT22;51144;53.002;6.506;2022-10-15T17:32:19;13.80;99.90
64715;DHT22;51144;53.002;6.506;2022-10-15T17:34:44;13.80;99.90
64715;DHT22;51144;53.002;6.506;2022-10-15T17:37:10;13.70;99.90
64715;DHT22;51144;53.002;6.506;2022-10-15T17:39:36;13.70;99.90
64715;DHT22;51144;53.002;6.506;2022-10-15T17:42:01;13.70;99.90
64715;DHT22;51144;53.002;6.506;2022-10-15T17:44:27;13.60;99.90
64715;DHT22;51144;53.002;6.506;2022-10-15T17:46:53;13.60;99.90
64715;DHT22;51144;53.002;6.506;2022-10-15T17:49:18;13.60;99.90
64715;DHT22;51144;53.002;6.506;2022-10-15T17:51:45;13.50;99.90
64715;DHT22;51144;53.002;6.506;2022-10-15T17:54:10;13.50;99.90